Terminal Aerodrome Forecast
Issued by NWS Austin/San Antonio, TX

Home | Current Version | Previous Version | Text Only | Print | Product List | Glossary On
Versions: 1 2 3 4 5 6 7 8 9 10 11 12 13 14 15 16 17 18 19 20 21 22 23 24 25 26 27
000
FTUS44 KEWX 181400 AAC
TAFAUS
TAF AMD
KAUS 181432Z 1815/1918 21005KT P6SM SCT060 OVC150
     FM182100 12005KT P6SM BKN040
     FM190600 10005KT P6SM BKN010 OVC035 PROB30 1907/1911 TSRA
      BKN020 OVC040CB
     FM191700 10005KT P6SM BKN035=

USA.gov is the U.S. government's official web portal to all federal, state and local government web resources and services.